Time;durP1;ratioP1;P1;durP2;ratioP2;P2;SDS_P1;SDS_P2;PMS_P1;PMS_P2;Temp;Humidity;BMP_temperature;BMP_pressure;BME280_temperature;BME280_humidity;BME280_pressure;Samples;Min_cycle;Max_cycle;Signal;HPM_P1;HPM_P2
2024/01/11 00:00:06;;;;;;;;;;;;;;;;;;5037315;28;1977;-75
2024/01/11 00:02:31;;;;;;;;;;;;;;;;;;5019611;28;1347;-75
2024/01/11 00:04:56;;;;;;;;;;;;;;;;;;5036852;28;1023;-75
2024/01/11 00:07:21;;;;;;;;;;;;;;;;;;5036626;28;955;-75
2024/01/11 00:09:46;;;;;;;;;;;;;;;;;;5036799;28;892;-75
2024/01/11 00:12:12;;;;;;;;;;;;;;;;;;5036460;28;911;-75
2024/01/11 00:14:37;;;;;;;;;;;;;;;;;;5036863;28;919;-74
2024/01/11 00:17:02;;;;;;;;;;;;;;;;;;5036928;28;896;-75
2024/01/11 00:19:27;;;;;;;;;;;;;;;;;;5036663;28;1902;-76
2024/01/11 00:21:53;;;;;;;;;;;;;;;;;;5050199;28;1269;-76
2024/01/11 00:24:18;;;;;;;;;;;;;;;;;;5035183;28;947;-76
2024/01/11 00:26:43;;;;;;;;;;;;;;;;;;5050065;28;1375;-75
2024/01/11 00:29:08;;;;;;;;;;;;;;;;;;5049881;28;1160;-75
2024/01/11 00:31:34;;;;;;;;;;;;;;;;;;5035850;28;821;-75
2024/01/11 00:33:59;;;;;;;;;;;;;;;;;;5033500;28;1034;-76
2024/01/11 00:36:24;;;;;;;;;;;;;;;;;;5036054;28;1006;-75
2024/01/11 00:38:49;;;;;;;;;;;;;;;;;;5034851;28;1878;-76
2024/01/11 00:41:15;;;;;;;;;;;;;;;;;;5036574;28;769;-75
2024/01/11 00:43:40;;;;;;;;;;;;;;;;;;5037113;28;852;-76
2024/01/11 00:46:05;;;;;;;;;;;;;;;;;;5036583;28;1042;-75
2024/01/11 00:48:30;;;;;;;;;;;;;;;;;;5036405;28;848;-76
2024/01/11 00:50:56;;;;;;;;;;;;;;;;;;5036477;28;899;-75
2024/01/11 00:53:21;;;;;;;;;;;;;;;;;;5036672;28;959;-75
2024/01/11 00:55:46;;;;;;;;;;;;;;;;;;5036270;28;1034;-76
2024/01/11 00:58:11;;;;;;;;;;;;;;;;;;5036260;28;892;-75
2024/01/11 01:00:36;;;;;;;;;;;;;;;;;;5036009;28;1894;-75
2024/01/11 01:03:02;;;;;;;;;;;;;;;;;;5036244;28;896;-75
2024/01/11 01:05:27;;;;;;;;;;;;;;;;;;5051410;28;1302;-75
2024/01/11 01:07:52;;;;;;;;;;;;;;;;;;5036275;28;891;-76
2024/01/11 01:10:20;;;;;;;;;;;;;;;;;;5035121;28;1414;-75
2024/01/11 01:12:45;;;;;;;;;;;;;;;;;;5060111;28;1151;-75
2024/01/11 01:15:11;;;;;;;;;;;;;;;;;;5035587;28;1299;-75
2024/01/11 01:17:37;;;;;;;;;;;;;;;;;;5034982;28;833;-75
2024/01/11 01:20:03;;;;;;;;;;;;;;;;;;5030180;28;1965;-75
2024/01/11 01:22:28;;;;;;;;;;;;;;;;;;5032076;28;1173;-75
2024/01/11 01:24:53;;;;;;;;;;;;;;;;;;5033961;28;1244;-75
2024/01/11 01:27:18;;;;;;;;;;;;;;;;;;5035831;28;1046;-75
2024/01/11 01:29:43;;;;;;;;;;;;;;;;;;5050373;28;1418;-75
2024/01/11 01:32:09;;;;;;;;;;;;;;;;;;5033833;28;1649;-75
2024/01/11 01:34:34;;;;;;;;;;;;;;;;;;5035729;28;892;-75
2024/01/11 01:36:59;;;;;;;;;;;;;;;;;;5035657;28;888;-74
2024/01/11 01:39:24;;;;;;;;;;;;;;;;;;5034570;28;1961;-75
2024/01/11 01:41:49;;;;;;;;;;;;;;;;;;5034472;28;987;-75
2024/01/11 01:44:15;;;;;;;;;;;;;;;;;;5034848;28;872;-75
2024/01/11 01:46:40;;;;;;;;;;;;;;;;;;5033460;28;1151;-75
2024/01/11 01:49:05;;;;;;;;;;;;;;;;;;5034681;28;947;-75
2024/01/11 01:51:31;;;;;;;;;;;;;;;;;;5049911;28;1168;-75
2024/01/11 01:53:57;;;;;;;;;;;;;;;;;;5032731;28;1387;-75
2024/01/11 01:56:22;;;;;;;;;;;;;;;;;;5033167;28;1152;-75
2024/01/11 01:58:50;;;;;;;;;;;;;;;;;;5033177;28;1967;-75
2024/01/11 02:01:15;;;;;;;;;;;;;;;;;;5033387;28;1172;-76
2024/01/11 02:03:41;;;;;;;;;;;;;;;;;;5028715;28;1224;-76
2024/01/11 02:06:06;;;;;;;;;;;;;;;;;;5029785;28;1213;-75
2024/01/11 02:08:32;;;;;;;;;;;;;;;;;;5013379;28;1228;-75
2024/01/11 02:10:59;;;;;;;;;;;;;;;;;;5029175;28;1308;-76
2024/01/11 02:13:24;;;;;;;;;;;;;;;;;;5024473;28;1166;-76
2024/01/11 02:15:49;;;;;;;;;;;;;;;;;;5011802;28;1237;-75
2024/01/11 02:18:14;;;;;;;;;;;;;;;;;;5034504;28;1145;-76
2024/01/11 02:20:40;;;;;;;;;;;;;;;;;;5028324;28;1978;-75
2024/01/11 02:23:07;;;;;;;;;;;;;;;;;;5030185;28;1141;-74
2024/01/11 02:25:33;;;;;;;;;;;;;;;;;;5029704;28;1157;-74
2024/01/11 02:27:58;;;;;;;;;;;;;;;;;;5030274;28;1232;-75
2024/01/11 02:30:23;;;;;;;;;;;;;;;;;;5032685;28;1229;-75
2024/01/11 02:32:50;;;;;;;;;;;;;;;;;;5034604;28;824;-74
2024/01/11 02:35:15;;;;;;;;;;;;;;;;;;5016525;28;1175;-74
2024/01/11 02:37:40;;;;;;;;;;;;;;;;;;5016735;28;1299;-75
2024/01/11 02:40:07;;;;;;;;;;;;;;;;;;5034340;28;1969;-74
2024/01/11 02:42:33;;;;;;;;;;;;;;;;;;5033320;28;1215;-75
2024/01/11 02:44:58;;;;;;;;;;;;;;;;;;5033891;28;970;-76
2024/01/11 02:47:23;;;;;;;;;;;;;;;;;;5016463;28;1243;-76
2024/01/11 02:49:48;;;;;;;;;;;;;;;;;;5016181;28;1179;-75
2024/01/11 02:52:13;;;;;;;;;;;;;;;;;;5016442;28;1182;-75
2024/01/11 02:54:39;;;;;;;;;;;;;;;;;;5034675;28;985;-75
2024/01/11 02:57:04;;;;;;;;;;;;;;;;;;5016628;28;1225;-76
2024/01/11 02:59:29;;;;;;;;;;;;;;;;;;5016198;28;1906;-75
2024/01/11 03:01:54;;;;;;;;;;;;;;;;;;5016529;28;1174;-75
2024/01/11 03:04:20;;;;;;;;;;;;;;;;;;5034002;28;836;-76
2024/01/11 03:06:45;;;;;;;;;;;;;;;;;;5015950;28;1137;-75
2024/01/11 03:09:11;;;;;;;;;;;;;;;;;;5016271;28;1283;-76
2024/01/11 03:11:37;;;;;;;;;;;;;;;;;;5015955;28;1377;-75
2024/01/11 03:14:02;;;;;;;;;;;;;;;;;;5033927;28;860;-75
2024/01/11 03:16:28;;;;;;;;;;;;;;;;;;5016462;28;1395;-75
2024/01/11 03:18:53;;;;;;;;;;;;;;;;;;5033332;28;1894;-76
2024/01/11 03:21:18;;;;;;;;;;;;;;;;;;5015775;28;1148;-75
2024/01/11 03:23:43;;;;;;;;;;;;;;;;;;5016094;28;1259;-75
2024/01/11 03:26:13;;;;;;;;;;;;;;;;;;5033503;28;979;-74
2024/01/11 03:28:38;;;;;;;;;;;;;;;;;;5033905;28;820;-75
2024/01/11 03:31:03;;;;;;;;;;;;;;;;;;5033493;28;856;-74
2024/01/11 03:33:28;;;;;;;;;;;;;;;;;;5033866;28;1018;-75
2024/01/11 03:35:54;;;;;;;;;;;;;;;;;;5015994;28;1242;-75
2024/01/11 03:38:19;;;;;;;;;;;;;;;;;;5016382;28;1252;-74
2024/01/11 03:40:44;;;;;;;;;;;;;;;;;;5036950;28;1898;-74
2024/01/11 03:43:09;;;;;;;;;;;;;;;;;;5037173;28;816;-75
2024/01/11 03:45:34;;;;;;;;;;;;;;;;;;5037407;28;884;-75
2024/01/11 03:48:00;;;;;;;;;;;;;;;;;;5037307;28;1003;-75
2024/01/11 03:50:25;;;;;;;;;;;;;;;;;;5037155;28;947;-75
2024/01/11 03:52:50;;;;;;;;;;;;;;;;;;5019276;28;1260;-74
2024/01/11 03:55:15;;;;;;;;;;;;;;;;;;5037133;28;1034;-75
2024/01/11 03:57:41;;;;;;;;;;;;;;;;;;5036793;28;920;-75
2024/01/11 04:00:06;;;;;;;;;;;;;;;;;;5036652;28;1965;-75
2024/01/11 04:02:31;;;;;;;;;;;;;;;;;;5019012;28;1445;-75
2024/01/11 04:04:57;;;;;;;;;;;;;;;;;;5019140;28;1304;-75
2024/01/11 04:07:22;;;;;;;;;;;;;;;;;;5019448;28;1109;-75
2024/01/11 04:09:47;;;;;;;;;;;;;;;;;;5019385;28;1295;-75
2024/01/11 04:12:12;;;;;;;;;;;;;;;;;;5037719;28;899;-75
2024/01/11 04:14:39;;;;;;;;;;;;;;;;;;5037232;28;777;-75
2024/01/11 04:17:04;;;;;;;;;;;;;;;;;;5019766;28;1487;-75
2024/01/11 04:19:30;;;;;;;;;;;;;;;;;;5019679;28;1903;-76
2024/01/11 04:21:55;;;;;;;;;;;;;;;;;;5037125;28;935;-75
2024/01/11 04:24:20;;;;;;;;;;;;;;;;;;5019591;28;1371;-75
2024/01/11 04:26:45;;;;;;;;;;;;;;;;;;5037345;28;935;-76
2024/01/11 04:29:10;;;;;;;;;;;;;;;;;;5037191;28;987;-75
2024/01/11 04:31:36;;;;;;;;;;;;;;;;;;5037064;28;853;-75
2024/01/11 04:34:01;;;;;;;;;;;;;;;;;;5017650;28;1220;-76
2024/01/11 04:36:26;;;;;;;;;;;;;;;;;;5033996;28;1214;-75
2024/01/11 04:38:51;;;;;;;;;;;;;;;;;;5036635;28;1906;-75
2024/01/11 04:41:17;;;;;;;;;;;;;;;;;;5036353;28;802;-75
2024/01/11 04:43:43;;;;;;;;;;;;;;;;;;5035670;28;884;-75
2024/01/11 04:46:17;;;;;;;;;;;;;;;;;;5036206;28;920;-75
2024/01/11 04:48:43;;;;;;;;;;;;;;;;;;5036175;28;841;-75
2024/01/11 04:51:08;;;;;;;;;;;;;;;;;;5035908;28;932;-74
2024/01/11 04:53:35;;;;;;;;;;;;;;;;;;5018106;28;1297;-74
2024/01/11 04:56:01;;;;;;;;;;;;;;;;;;5035833;28;845;-74
2024/01/11 04:58:26;;;;;;;;;;;;;;;;;;5035755;28;975;-75
2024/01/11 05:00:51;;;;;;;;;;;;;;;;;;5035625;28;1959;-75
2024/01/11 05:03:16;;;;;;;;;;;;;;;;;;5016829;28;1176;-74
2024/01/11 05:05:41;;;;;;;;;;;;;;;;;;5033780;28;829;-72
2024/01/11 05:08:08;;;;;;;;;;;;;;;;;;5033271;28;1045;-71
2024/01/11 05:10:35;;;;;;;;;;;;;;;;;;5033679;28;790;-71
2024/01/11 05:13:00;;;;;;;;;;;;;;;;;;5033455;28;1065;-72
2024/01/11 05:15:26;;;;;;;;;;;;;;;;;;5033016;28;951;-71
2024/01/11 05:17:51;;;;;;;;;;;;;;;;;;5015687;28;1034;-71
2024/01/11 05:20:16;;;;;;;;;;;;;;;;;;5017186;28;1977;-71
2024/01/11 05:22:41;;;;;;;;;;;;;;;;;;5035035;28;954;-72
2024/01/11 05:25:06;;;;;;;;;;;;;;;;;;5035060;28;833;-71
2024/01/11 05:27:32;;;;;;;;;;;;;;;;;;5017200;28;1145;-72
2024/01/11 05:29:57;;;;;;;;;;;;;;;;;;5035218;28;915;-71
2024/01/11 05:32:22;;;;;;;;;;;;;;;;;;5036467;28;999;-71
2024/01/11 05:34:47;;;;;;;;;;;;;;;;;;5039755;28;892;-72
2024/01/11 05:37:12;;;;;;;;;;;;;;;;;;5020665;28;1265;-72
2024/01/11 05:39:38;;;;;;;;;;;;;;;;;;5019125;28;1955;-75
2024/01/11 05:42:03;;;;;;;;;;;;;;;;;;5036968;28;801;-75
2024/01/11 05:44:28;;;;;;;;;;;;;;;;;;5019262;28;1164;-75
2024/01/11 05:46:53;;;;;;;;;;;;;;;;;;5037703;28;999;-75
2024/01/11 05:49:19;;;;;;;;;;;;;;;;;;5038370;28;991;-75
2024/01/11 05:51:44;;;;;;;;;;;;;;;;;;5040159;28;959;-75
2024/01/11 05:54:09;;;;;;;;;;;;;;;;;;5022942;28;1346;-75
2024/01/11 05:56:34;;;;;;;;;;;;;;;;;;5022834;28;1327;-75
2024/01/11 05:58:59;;;;;;;;;;;;;;;;;;5022355;28;1928;-76
2024/01/11 06:01:25;;;;;;;;;;;;;;;;;;5023575;28;1544;-77
2024/01/11 06:03:50;;;;;;;;;;;;;;;;;;5039837;28;1081;-75
2024/01/11 06:06:15;;;;;;;;;;;;;;;;;;5045022;28;956;-75
2024/01/11 06:08:42;;;;;;;;;;;;;;;;;;5049522;28;944;-76
2024/01/11 06:11:10;;;;;;;;;;;;;;;;;;5029400;28;1090;-75
2024/01/11 06:13:35;;;;;;;;;;;;;;;;;;5034156;28;1233;-76
2024/01/11 06:16:01;;;;;;;;;;;;;;;;;;5035190;28;888;-76
2024/01/11 06:18:26;;;;;;;;;;;;;;;;;;5035328;28;836;-75
2024/01/11 06:20:51;;;;;;;;;;;;;;;;;;5035196;28;1902;-74
2024/01/11 06:23:16;;;;;;;;;;;;;;;;;;5034773;28;923;-75
2024/01/11 06:25:42;;;;;;;;;;;;;;;;;;5034833;28;945;-74
2024/01/11 06:28:08;;;;;;;;;;;;;;;;;;5016769;28;1175;-74
2024/01/11 06:30:33;;;;;;;;;;;;;;;;;;5034638;28;821;-75
2024/01/11 06:32:58;;;;;;;;;;;;;;;;;;5034376;28;938;-75
2024/01/11 06:35:23;;;;;;;;;;;;;;;;;;5034480;28;828;-74
2024/01/11 06:37:49;;;;;;;;;;;;;;;;;;5034286;28;837;-75
2024/01/11 06:40:14;;;;;;;;;;;;;;;;;;5033987;28;1976;-75
2024/01/11 06:42:39;;;;;;;;;;;;;;;;;;5034176;28;987;-76
2024/01/11 06:45:05;;;;;;;;;;;;;;;;;;5034369;28;837;-76
2024/01/11 06:47:30;;;;;;;;;;;;;;;;;;5032406;28;1187;-76
2024/01/11 06:49:55;;;;;;;;;;;;;;;;;;5034782;28;1045;-75
2024/01/11 06:52:21;;;;;;;;;;;;;;;;;;5036502;28;891;-76
2024/01/11 06:54:46;;;;;;;;;;;;;;;;;;5034167;28;999;-76
2024/01/11 06:57:11;;;;;;;;;;;;;;;;;;5034402;28;875;-74
2024/01/11 06:59:37;;;;;;;;;;;;;;;;;;5033932;28;1984;-75
2024/01/11 07:02:02;;;;;;;;;;;;;;;;;;5016532;28;1169;-75
2024/01/11 07:04:27;;;;;;;;;;;;;;;;;;5016204;28;1173;-75
2024/01/11 07:06:53;;;;;;;;;;;;;;;;;;5033545;28;943;-76
2024/01/11 07:09:18;;;;;;;;;;;;;;;;;;5033859;28;888;-76
2024/01/11 07:11:44;;;;;;;;;;;;;;;;;;5015252;28;1330;-72
2024/01/11 07:14:09;;;;;;;;;;;;;;;;;;5033376;28;923;-74
2024/01/11 07:16:35;;;;;;;;;;;;;;;;;;5037405;28;844;-73
2024/01/11 07:19:00;;;;;;;;;;;;;;;;;;5018882;28;1898;-73
2024/01/11 07:21:29;;;;;;;;;;;;;;;;;;5035618;28;1234;-73
2024/01/11 07:23:55;;;;;;;;;;;;;;;;;;5036896;28;884;-73
2024/01/11 07:26:20;;;;;;;;;;;;;;;;;;5019234;28;1274;-74
2024/01/11 07:28:46;;;;;;;;;;;;;;;;;;5019001;28;1357;-74
2024/01/11 07:31:14;;;;;;;;;;;;;;;;;;5035851;28;806;-74
2024/01/11 07:33:39;;;;;;;;;;;;;;;;;;5035440;28;1292;-73
2024/01/11 07:36:05;;;;;;;;;;;;;;;;;;5036508;28;948;-73
2024/01/11 07:38:31;;;;;;;;;;;;;;;;;;5036549;28;845;-74
2024/01/11 07:40:56;;;;;;;;;;;;;;;;;;5036483;28;1966;-74
2024/01/11 07:43:21;;;;;;;;;;;;;;;;;;5018487;28;1326;-75
2024/01/11 07:45:46;;;;;;;;;;;;;;;;;;5018910;28;1165;-74
2024/01/11 07:48:11;;;;;;;;;;;;;;;;;;5018614;28;1647;-74
2024/01/11 07:50:37;;;;;;;;;;;;;;;;;;5036807;28;825;-74
2024/01/11 07:53:02;;;;;;;;;;;;;;;;;;5019014;28;1598;-73
2024/01/11 07:55:27;;;;;;;;;;;;;;;;;;5018638;28;1197;-73
2024/01/11 07:57:52;;;;;;;;;;;;;;;;;;5036915;28;872;-76
2024/01/11 08:00:18;;;;;;;;;;;;;;;;;;5037517;28;1910;-76
2024/01/11 08:02:43;;;;;;;;;;;;;;;;;;5036938;28;888;-77
2024/01/11 08:05:08;;;;;;;;;;;;;;;;;;5036116;28;1173;-76
2024/01/11 08:07:34;;;;;;;;;;;;;;;;;;5037161;28;908;-76
2024/01/11 08:10:00;;;;;;;;;;;;;;;;;;5017750;28;1181;-76
2024/01/11 08:12:25;;;;;;;;;;;;;;;;;;5035592;28;938;-77
2024/01/11 08:14:50;;;;;;;;;;;;;;;;;;5035705;28;816;-75
2024/01/11 08:17:15;;;;;;;;;;;;;;;;;;5035466;28;821;-75
2024/01/11 08:19:42;;;;;;;;;;;;;;;;;;5035892;28;1980;-76
2024/01/11 08:22:07;;;;;;;;;;;;;;;;;;5016986;28;1307;-75
2024/01/11 08:24:34;;;;;;;;;;;;;;;;;;5031961;28;1169;-75
2024/01/11 08:27:00;;;;;;;;;;;;;;;;;;5030712;28;1182;-76
2024/01/11 08:29:25;;;;;;;;;;;;;;;;;;5030049;28;1191;-75
2024/01/11 08:31:51;;;;;;;;;;;;;;;;;;5016369;28;1224;-75
2024/01/11 08:34:16;;;;;;;;;;;;;;;;;;5036139;28;991;-76
2024/01/11 08:36:41;;;;;;;;;;;;;;;;;;5050859;28;1222;-75
2024/01/11 08:39:07;;;;;;;;;;;;;;;;;;5051463;28;1965;-75
2024/01/11 08:41:33;;;;;;;;;;;;;;;;;;5034408;28;1179;-75
2024/01/11 08:43:58;;;;;;;;;;;;;;;;;;5035779;28;871;-75
2024/01/11 08:46:25;;;;;;;;;;;;;;;;;;5018162;28;1278;-76
2024/01/11 08:48:50;;;;;;;;;;;;;;;;;;5035851;28;911;-76
2024/01/11 08:51:15;;;;;;;;;;;;;;;;;;5035956;28;987;-80
2024/01/11 08:53:41;;;;;;;;;;;;;;;;;;5051447;28;1208;-76
2024/01/11 08:56:06;;;;;;;;;;;;;;;;;;5033790;28;1274;-78
2024/01/11 08:58:31;;;;;;;;;;;;;;;;;;5034213;28;1180;-76
2024/01/11 09:00:56;;;;;;;;;;;;;;;;;;5035826;28;1914;-76
2024/01/11 09:03:22;;;;;;;;;;;;;;;;;;5035342;28;1209;-77
2024/01/11 09:05:47;;;;;;;;;;;;;;;;;;5014760;28;1394;-77
2024/01/11 09:08:12;;;;;;;;;;;;;;;;;;5031735;28;1157;-77
2024/01/11 09:10:37;;;;;;;;;;;;;;;;;;5033255;28;1205;-76
2024/01/11 09:13:03;;;;;;;;;;;;;;;;;;5031037;28;1208;-77
2024/01/11 09:15:28;;;;;;;;;;;;;;;;;;5017000;28;1197;-77
2024/01/11 09:17:54;;;;;;;;;;;;;;;;;;4997903;28;1283;-80
2024/01/11 09:20:19;;;;;;;;;;;;;;;;;;5015445;28;1921;-77
2024/01/11 09:22:45;;;;;;;;;;;;;;;;;;5015516;28;908;-77
2024/01/11 09:25:10;;;;;;;;;;;;;;;;;;5015104;28;880;-77
2024/01/11 09:27:36;;;;;;;;;;;;;;;;;;5015294;28;893;-78
2024/01/11 09:30:01;;;;;;;;;;;;;;;;;;4998075;28;1180;-77
2024/01/11 09:32:26;;;;;;;;;;;;;;;;;;5015524;28;936;-77
2024/01/11 09:34:51;;;;;;;;;;;;;;;;;;5015378;28;880;-77
2024/01/11 09:37:17;;;;;;;;;;;;;;;;;;4997941;28;1413;-77
2024/01/11 09:39:42;;;;;;;;;;;;;;;;;;5014427;28;1910;-75
2024/01/11 09:42:11;;;;;;;;;;;;;;;;;;5015233;28;951;-75
2024/01/11 09:44:38;;;;;;;;;;;;;;;;;;4997749;28;1188;-76
2024/01/11 09:47:04;;;;;;;;;;;;;;;;;;4997630;28;1180;-76
2024/01/11 09:49:30;;;;;;;;;;;;;;;;;;5013901;28;1433;-75
2024/01/11 09:51:56;;;;;;;;;;;;;;;;;;5014269;28;1375;-75
2024/01/11 09:54:23;;;;;;;;;;;;;;;;;;4997581;28;1252;-76
2024/01/11 09:56:50;;;;;;;;;;;;;;;;;;5015221;28;991;-75
2024/01/11 09:59:19;;;;;;;;;;;;;;;;;;5015082;28;1910;-75
2024/01/11 10:01:44;;;;;;;;;;;;;;;;;;5014409;28;1003;-72
2024/01/11 10:04:10;;;;;;;;;;;;;;;;;;5014162;28;923;-72
2024/01/11 10:06:38;;;;;;;;;;;;;;;;;;5029723;28;1268;-72
2024/01/11 10:09:03;;;;;;;;;;;;;;;;;;5028930;28;1262;-71
2024/01/11 10:11:29;;;;;;;;;;;;;;;;;;5020319;28;1189;-72
2024/01/11 10:13:57;;;;;;;;;;;;;;;;;;5025455;28;1181;-72
2024/01/11 10:16:24;;;;;;;;;;;;;;;;;;5029298;28;1169;-73
2024/01/11 10:18:49;;;;;;;;;;;;;;;;;;5012002;28;1959;-73
2024/01/11 10:21:14;;;;;;;;;;;;;;;;;;5029275;28;1157;-72
2024/01/11 10:23:40;;;;;;;;;;;;;;;;;;5028741;28;1090;-72
2024/01/11 10:26:07;;;;;;;;;;;;;;;;;;5012122;28;1178;-76
2024/01/11 10:28:36;;;;;;;;;;;;;;;;;;5028229;28;1194;-75
2024/01/11 10:31:01;;;;;;;;;;;;;;;;;;5013077;28;1162;-75
2024/01/11 10:33:26;;;;;;;;;;;;;;;;;;5032537;28;1047;-75
2024/01/11 10:35:51;;;;;;;;;;;;;;;;;;5034228;28;891;-76
2024/01/11 10:38:17;;;;;;;;;;;;;;;;;;5024633;28;1326;-75
2024/01/11 10:40:43;;;;;;;;;;;;;;;;;;5048327;28;1898;-77
2024/01/11 10:43:12;;;;;;;;;;;;;;;;;;5046866;28;1200;-75
2024/01/11 10:45:41;;;;;;;;;;;;;;;;;;5047951;28;1177;-72
2024/01/11 10:48:07;;;;;;;;;;;;;;;;;;5031633;28;1360;-72
2024/01/11 10:50:39;;;;;;;;;;;;;;;;;;5015767;28;1173;-73
2024/01/11 10:53:18;;;;;;;;;;;;;;;;;;5033096;28;1138;-72
2024/01/11 10:55:43;;;;;;;;;;;;;;;;;;5051527;28;1164;-73
2024/01/11 10:58:10;;;;;;;;;;;;;;;;;;5035814;28;828;-73
2024/01/11 11:00:36;;;;;;;;;;;;;;;;;;5035427;28;1879;-73
2024/01/11 11:03:02;;;;;;;;;;;;;;;;;;5035174;28;1007;-72
2024/01/11 11:05:30;;;;;;;;;;;;;;;;;;5034737;28;1133;-73
2024/01/11 11:07:55;;;;;;;;;;;;;;;;;;5011766;28;1298;-72
2024/01/11 11:10:21;;;;;;;;;;;;;;;;;;5014177;28;825;-72
2024/01/11 11:12:48;;;;;;;;;;;;;;;;;;5013470;28;1340;-72
2024/01/11 11:15:14;;;;;;;;;;;;;;;;;;5012570;28;1269;-72
2024/01/11 11:17:40;;;;;;;;;;;;;;;;;;4996474;28;1232;-72
2024/01/11 11:20:07;;;;;;;;;;;;;;;;;;5014101;28;1975;-72
2024/01/11 11:22:36;;;;;;;;;;;;;;;;;;5013968;28;872;-72
2024/01/11 11:25:11;;;;;;;;;;;;;;;;;;5012796;28;1086;-76
2024/01/11 11:27:36;;;;;;;;;;;;;;;;;;4996959;28;1332;-77
2024/01/11 11:30:04;;;;;;;;;;;;;;;;;;5013755;28;885;-73
2024/01/11 11:32:36;;;;;;;;;;;;;;;;;;4996261;28;1320;-73
2024/01/11 11:35:02;;;;;;;;;;;;;;;;;;4995718;28;1327;-73
2024/01/11 11:37:29;;;;;;;;;;;;;;;;;;5014079;28;826;-73
2024/01/11 11:39:54;;;;;;;;;;;;;;;;;;5012126;28;1899;-73
2024/01/11 11:42:21;;;;;;;;;;;;;;;;;;5014546;28;987;-73
2024/01/11 11:44:50;;;;;;;;;;;;;;;;;;5013291;28;869;-73
2024/01/11 11:47:23;;;;;;;;;;;;;;;;;;4995123;28;1130;-73
2024/01/11 11:49:59;;;;;;;;;;;;;;;;;;5013918;28;923;-73
2024/01/11 11:52:25;;;;;;;;;;;;;;;;;;5011589;28;1163;-73
2024/01/11 11:54:50;;;;;;;;;;;;;;;;;;5013187;28;1022;-73
2024/01/11 11:57:16;;;;;;;;;;;;;;;;;;4995778;28;1157;-73
2024/01/11 11:59:42;;;;;;;;;;;;;;;;;;5010588;28;1910;-73
2024/01/11 12:02:14;;;;;;;;;;;;;;;;;;5004069;28;1228;-73
2024/01/11 12:04:40;;;;;;;;;;;;;;;;;;5033386;28;1130;-73
2024/01/11 12:07:05;;;;;;;;;;;;;;;;;;5035527;28;1165;-73
2024/01/11 12:09:30;;;;;;;;;;;;;;;;;;5031991;28;1205;-72
2024/01/11 12:11:55;;;;;;;;;;;;;;;;;;5032711;28;1208;-72
2024/01/11 12:14:21;;;;;;;;;;;;;;;;;;5030575;28;1254;-72
2024/01/11 12:16:55;;;;;;;;;;;;;;;;;;5032660;28;1192;-72
2024/01/11 12:19:20;;;;;;;;;;;;;;;;;;5030424;28;1957;-72
2024/01/11 12:21:45;;;;;;;;;;;;;;;;;;5013841;28;1162;-72
2024/01/11 12:24:10;;;;;;;;;;;;;;;;;;5014654;28;1377;-72
2024/01/11 12:26:37;;;;;;;;;;;;;;;;;;5032640;28;1173;-72
2024/01/11 12:29:02;;;;;;;;;;;;;;;;;;5032458;28;1149;-72
2024/01/11 12:31:27;;;;;;;;;;;;;;;;;;5032014;28;1280;-72
2024/01/11 12:33:53;;;;;;;;;;;;;;;;;;5017718;28;1177;-72
2024/01/11 12:36:18;;;;;;;;;;;;;;;;;;5035555;28;825;-72
2024/01/11 12:38:48;;;;;;;;;;;;;;;;;;5017138;28;1180;-72
2024/01/11 12:41:13;;;;;;;;;;;;;;;;;;5017448;28;1977;-72
2024/01/11 12:43:38;;;;;;;;;;;;;;;;;;5035327;28;1058;-72
2024/01/11 12:46:03;;;;;;;;;;;;;;;;;;5034724;28;1042;-73
2024/01/11 12:48:29;;;;;;;;;;;;;;;;;;5035370;28;821;-73
2024/01/11 12:50:55;;;;;;;;;;;;;;;;;;5016324;28;1388;-73
2024/01/11 12:53:20;;;;;;;;;;;;;;;;;;5035055;28;840;-73
2024/01/11 12:55:48;;;;;;;;;;;;;;;;;;5033340;28;1298;-72
2024/01/11 12:58:18;;;;;;;;;;;;;;;;;;5034791;28;920;-73
2024/01/11 13:00:44;;;;;;;;;;;;;;;;;;5016256;28;1910;-72
2024/01/11 13:03:10;;;;;;;;;;;;;;;;;;5017128;28;1280;-73
2024/01/11 13:05:35;;;;;;;;;;;;;;;;;;5035038;28;974;-72
2024/01/11 13:08:02;;;;;;;;;;;;;;;;;;5034568;28;1181;-72
2024/01/11 13:10:27;;;;;;;;;;;;;;;;;;5026202;28;1149;-72
2024/01/11 13:12:53;;;;;;;;;;;;;;;;;;5029681;28;1184;-72
2024/01/11 13:15:18;;;;;;;;;;;;;;;;;;5014875;28;1213;-72
2024/01/11 13:17:44;;;;;;;;;;;;;;;;;;5015809;28;1308;-76
2024/01/11 13:20:09;;;;;;;;;;;;;;;;;;5016337;28;2003;-76
2024/01/11 13:22:34;;;;;;;;;;;;;;;;;;5015596;28;1205;-74
2024/01/11 13:25:00;;;;;;;;;;;;;;;;;;5016359;28;1168;-76
2024/01/11 13:27:25;;;;;;;;;;;;;;;;;;5017448;28;1598;-76
2024/01/11 13:29:50;;;;;;;;;;;;;;;;;;5017267;28;1248;-71
2024/01/11 13:32:16;;;;;;;;;;;;;;;;;;5034576;28;979;-71
2024/01/11 13:34:42;;;;;;;;;;;;;;;;;;5017142;28;1160;-71
2024/01/11 13:37:07;;;;;;;;;;;;;;;;;;5016718;28;1234;-72
2024/01/11 13:39:33;;;;;;;;;;;;;;;;;;5016163;28;1967;-72
2024/01/11 13:41:58;;;;;;;;;;;;;;;;;;5034310;28;899;-72
2024/01/11 13:44:23;;;;;;;;;;;;;;;;;;5034061;28;884;-72
2024/01/11 13:46:48;;;;;;;;;;;;;;;;;;5034680;28;903;-76
2024/01/11 13:49:13;;;;;;;;;;;;;;;;;;5034297;28;983;-76
2024/01/11 13:51:39;;;;;;;;;;;;;;;;;;5034780;28;971;-76
2024/01/11 13:54:04;;;;;;;;;;;;;;;;;;5034088;28;1020;-76
2024/01/11 13:56:29;;;;;;;;;;;;;;;;;;5016496;28;1456;-76
2024/01/11 13:58:55;;;;;;;;;;;;;;;;;;5034114;28;1910;-76
2024/01/11 14:01:20;;;;;;;;;;;;;;;;;;5035287;28;820;-76
2024/01/11 14:03:45;;;;;;;;;;;;;;;;;;5016734;28;1295;-76
2024/01/11 14:06:10;;;;;;;;;;;;;;;;;;5033834;28;880;-76
2024/01/11 14:08:36;;;;;;;;;;;;;;;;;;5033675;28;1176;-76
2024/01/11 14:11:04;;;;;;;;;;;;;;;;;;5013490;28;1276;-75
2024/01/11 14:13:29;;;;;;;;;;;;;;;;;;5012217;28;1338;-76
2024/01/11 14:15:54;;;;;;;;;;;;;;;;;;5029880;28;1169;-76
2024/01/11 14:18:20;;;;;;;;;;;;;;;;;;5028617;28;1240;-72
2024/01/11 14:20:46;;;;;;;;;;;;;;;;;;5011207;28;1969;-72
2024/01/11 14:23:11;;;;;;;;;;;;;;;;;;5029060;28;1157;-73
2024/01/11 14:25:36;;;;;;;;;;;;;;;;;;5029722;28;1157;-76
2024/01/11 14:28:02;;;;;;;;;;;;;;;;;;5028069;28;1501;-75
2024/01/11 14:30:27;;;;;;;;;;;;;;;;;;5026853;28;1165;-75
2024/01/11 14:32:52;;;;;;;;;;;;;;;;;;5031969;28;1180;-75
2024/01/11 14:35:18;;;;;;;;;;;;;;;;;;5033773;28;911;-75
2024/01/11 14:37:44;;;;;;;;;;;;;;;;;;5033753;28;781;-75
2024/01/11 14:40:13;;;;;;;;;;;;;;;;;;5013929;28;1891;-75
2024/01/11 14:42:38;;;;;;;;;;;;;;;;;;5015823;28;1216;-75
2024/01/11 14:45:04;;;;;;;;;;;;;;;;;;5015866;28;1149;-75
2024/01/11 14:47:31;;;;;;;;;;;;;;;;;;5033070;28;821;-72
2024/01/11 14:49:56;;;;;;;;;;;;;;;;;;5033024;28;904;-72
2024/01/11 14:52:21;;;;;;;;;;;;;;;;;;5033291;28;829;-71
2024/01/11 14:54:50;;;;;;;;;;;;;;;;;;5031828;28;1148;-72
2024/01/11 14:57:15;;;;;;;;;;;;;;;;;;5032001;28;1196;-71
2024/01/11 14:59:41;;;;;;;;;;;;;;;;;;5033207;28;1886;-72
2024/01/11 15:02:06;;;;;;;;;;;;;;;;;;5033261;28;785;-72
2024/01/11 15:04:32;;;;;;;;;;;;;;;;;;5033217;28;1003;-72
2024/01/11 15:06:57;;;;;;;;;;;;;;;;;;5031939;28;1180;-72
2024/01/11 15:09:23;;;;;;;;;;;;;;;;;;5033278;28;825;-71
2024/01/11 15:11:48;;;;;;;;;;;;;;;;;;4996243;28;1221;-72
2024/01/11 15:14:13;;;;;;;;;;;;;;;;;;5028947;28;1320;-72
2024/01/11 15:16:39;;;;;;;;;;;;;;;;;;5026831;28;1213;-72
2024/01/11 15:19:04;;;;;;;;;;;;;;;;;;5011804;28;1966;-72
2024/01/11 15:21:30;;;;;;;;;;;;;;;;;;4994149;28;1310;-72
2024/01/11 15:23:55;;;;;;;;;;;;;;;;;;5012518;28;845;-72
2024/01/11 15:26:21;;;;;;;;;;;;;;;;;;4994389;28;1302;-73
2024/01/11 15:28:47;;;;;;;;;;;;;;;;;;5012118;28;1245;-72
2024/01/11 15:31:12;;;;;;;;;;;;;;;;;;5013657;28;951;-72
2024/01/11 15:33:38;;;;;;;;;;;;;;;;;;5011317;28;1141;-72
2024/01/11 15:36:04;;;;;;;;;;;;;;;;;;5014257;28;1327;-72
2024/01/11 15:38:29;;;;;;;;;;;;;;;;;;4999469;28;1161;-73
2024/01/11 15:40:54;;;;;;;;;;;;;;;;;;5017743;28;1902;-73
2024/01/11 15:43:20;;;;;;;;;;;;;;;;;;5017350;28;904;-73
2024/01/11 15:45:45;;;;;;;;;;;;;;;;;;5016908;28;876;-73
2024/01/11 15:48:10;;;;;;;;;;;;;;;;;;5017186;28;763;-73
2024/01/11 15:50:36;;;;;;;;;;;;;;;;;;5017009;28;1032;-73
2024/01/11 15:53:02;;;;;;;;;;;;;;;;;;5016769;28;937;-73
2024/01/11 15:55:27;;;;;;;;;;;;;;;;;;5016927;28;929;-74
2024/01/11 15:57:54;;;;;;;;;;;;;;;;;;5015349;28;1180;-74
2024/01/11 16:00:19;;;;;;;;;;;;;;;;;;4998696;28;1910;-73
2024/01/11 16:02:46;;;;;;;;;;;;;;;;;;5015479;28;793;-73
2024/01/11 16:05:11;;;;;;;;;;;;;;;;;;4999440;28;1190;-72
2024/01/11 16:07:36;;;;;;;;;;;;;;;;;;5016370;28;955;-72
2024/01/11 16:10:01;;;;;;;;;;;;;;;;;;5016423;28;820;-73
2024/01/11 16:12:26;;;;;;;;;;;;;;;;;;5023999;28;1287;-73
2024/01/11 16:14:56;;;;;;;;;;;;;;;;;;5034297;28;848;-73
2024/01/11 16:17:22;;;;;;;;;;;;;;;;;;5014373;28;1303;-73
2024/01/11 16:19:47;;;;;;;;;;;;;;;;;;5035918;28;1902;-76
2024/01/11 16:22:12;;;;;;;;;;;;;;;;;;5036135;28;987;-77
2024/01/11 16:24:38;;;;;;;;;;;;;;;;;;5036548;28;840;-77
2024/01/11 16:27:05;;;;;;;;;;;;;;;;;;5035837;28;801;-77
2024/01/11 16:29:31;;;;;;;;;;;;;;;;;;5018527;28;1347;-73
2024/01/11 16:31:56;;;;;;;;;;;;;;;;;;5036289;28;864;-73
2024/01/11 16:34:21;;;;;;;;;;;;;;;;;;5035825;28;804;-73
2024/01/11 16:36:46;;;;;;;;;;;;;;;;;;5017623;28;1661;-73
2024/01/11 16:39:11;;;;;;;;;;;;;;;;;;5035757;28;1894;-73
2024/01/11 16:41:37;;;;;;;;;;;;;;;;;;5035403;28;966;-73
2024/01/11 16:44:04;;;;;;;;;;;;;;;;;;5035751;28;856;-73
2024/01/11 16:46:29;;;;;;;;;;;;;;;;;;5035258;28;817;-72
2024/01/11 16:48:55;;;;;;;;;;;;;;;;;;5035024;28;999;-72
2024/01/11 16:51:20;;;;;;;;;;;;;;;;;;5033053;28;1177;-72
2024/01/11 16:53:45;;;;;;;;;;;;;;;;;;5032150;28;1184;-72
2024/01/11 16:56:11;;;;;;;;;;;;;;;;;;5030539;28;1165;-72